Yahata Maru — JL6477 — position and weather

sailwx.info

Track history (hours):
 
Tides and Currents Weather Stations Pressure Air Temp Water Temp Dewpoint Dewpoint Depression Visibility Wind Speed Wind Dir Waves Ship Positions

Yahata Maru

Last reported at 2014-Sep-19 22:26 UTC. Time now 2014-Sep-20 10:00 UTC.
Position N 34°35' E 134°50'.

Length 149 m; draft 4.7 m.

Type: Other ship. MMSI: 431400594.

Date/timePositionNaut miles runAvg speedWind from/ knotsBaromVisibWave heightAir tempDewpointWater temp
2014-Sep-19 22:26N 34°35' E 134°50'910.4
2014-Sep-19 21:33N 34°37' E 135°01'9 9.3
2014-Sep-19 20:33N 34°36' E 135°12'9 9.1
2014-Sep-19 19:34N 34°42' E 135°21'1 1.2
2014-Sep-19 18:29N 34°43' E 135°21'0 0.0
2014-Sep-19 17:23N 34°43' E 135°21'0 0.0
2014-Sep-19 16:29N 34°43' E 135°21'0 0.0
2014-Sep-19 15:29N 34°43' E 135°21'0 0.0
2014-Sep-19 14:29N 34°43' E 135°21'0 0.0
2014-Sep-19 13:29N 34°43' E 135°21'0 0.0
2014-Sep-19 12:23N 34°43' E 135°21'0 0.0
2014-Sep-19 11:29N 34°43' E 135°21'0 0.0
2014-Sep-19 10:11N 34°43' E 135°21'0 0.0
2014-Sep-19 09:29N 34°43' E 135°21'0 0.0
2014-Sep-19 08:29N 34°43' E 135°21'0 0.3
2014-Sep-19 07:32N 34°43' E 135°21'7 6.8
2014-Sep-19 06:33N 34°36' E 135°21'2 0.4
2014-Sep-19 00:33N 34°36' E 135°24'6 5.1
2014-Sep-18 23:28N 34°34' E 135°18'0 0.0
2014-Sep-18 22:28N 34°34' E 135°18'0 0.0
2014-Sep-18 21:16N 34°34' E 135°18'0 0.0
2014-Sep-18 20:22N 34°34' E 135°18'0 0.0
2014-Sep-18 19:28N 34°34' E 135°18'0 0.0
2014-Sep-18 18:28N 34°34' E 135°18'0 0.1
2014-Sep-18 17:28N 34°34' E 135°18'4 4.7
2014-Sep-18 16:33N 34°31' E 135°14'9 9.0
2014-Sep-18 15:33N 34°24' E 135°07'12 7.8
2014-Sep-18 14:03N 34°15' E 134°59'4 8.5
2014-Sep-18 13:33N 34°10' E 134°60'232 5.5
2014-Sep-16 19:29N 35°04' E 139°34'910.0
2014-Sep-16 18:33N 35°09' E 139°43'9 9.1
2014-Sep-16 17:33N 35°18' E 139°44'10 9.6
2014-Sep-16 16:33N 35°28' E 139°43'0 0.4
2014-Sep-16 15:31N 35°28' E 139°43'0 0.0
2014-Sep-16 14:31N 35°28' E 139°43'2 2.2
2014-Sep-16 13:34N 35°27' E 139°45'7 7.3
2014-Sep-16 12:33N 35°30' E 139°52'8 8.2
2014-Sep-16 11:32N 35°34' E 140°02'4 4.1
2014-Sep-16 10:30N 35°33' E 140°07'0 0.0
2014-Sep-16 09:33N 35°33' E 140°07'0 0.0
2014-Sep-16 08:33N 35°33' E 140°07'0 0.0
2014-Sep-16 07:33N 35°33' E 140°07'0 0.0
2014-Sep-16 06:33N 35°33' E 140°07'0 0.0
2014-Sep-16 05:30N 35°33' E 140°07'0 0.0
2014-Sep-16 04:27N 35°33' E 140°07'0 0.0
2014-Sep-16 03:30N 35°33' E 140°07'0 0.0
2014-Sep-16 02:30N 35°33' E 140°07'0 0.0
2014-Sep-16 01:33N 35°33' E 140°07'0 0.0
2014-Sep-16 00:33N 35°33' E 140°07'0 0.0
2014-Sep-15 23:30N 35°33' E 140°07'0 0.0
2014-Sep-15 22:33N 35°33' E 140°07'0 0.0
2014-Sep-15 21:21N 35°33' E 140°07'0 0.0
2014-Sep-15 20:33N 35°33' E 140°07'0 0.0
2014-Sep-15 19:33N 35°33' E 140°07'0 0.0
2014-Sep-15 18:33N 35°33' E 140°07'0 0.0
2014-Sep-15 17:30N 35°33' E 140°07'0 0.0
2014-Sep-15 16:30N 35°33' E 140°07'0 0.0
2014-Sep-15 15:33N 35°33' E 140°07'0 0.0
2014-Sep-15 14:33N 35°33' E 140°07'4 4.5
2014-Sep-15 13:33N 35°33' E 140°01'10 9.5
2014-Sep-15 12:33N 35°28' E 139°51'10 9.6
2014-Sep-15 11:33N 35°20' E 139°45'9 9.0
2014-Sep-15 10:33N 35°12' E 139°47'  
2014-Sep-11 00:33N 34°35' E 134°54'1110.9
2014-Sep-10 23:33N 34°36' E 135°07'10 9.7
2014-Sep-10 22:33N 34°39' E 135°18'5 4.9
2014-Sep-10 21:33N 34°43' E 135°21'0 0.0
2014-Sep-10 20:31N 34°43' E 135°21'0 0.0
2014-Sep-10 14:13N 34°43' E 135°21'0 0.0
2014-Sep-10 13:33N 34°43' E 135°21'5 5.1
2014-Sep-10 12:33N 34°38' E 135°20'5 3.8
2014-Sep-10 11:12N 34°35' E 135°26'0 0.0
2014-Sep-10 10:30N 34°35' E 135°26'0 0.0
2014-Sep-10 09:30N 34°35' E 135°26'3 3.3
2014-Sep-10 08:33N 34°36' E 135°22'1010.1
2014-Sep-10 07:33N 34°29' E 135°13'9 8.7
2014-Sep-10 06:32N 34°23' E 135°05'8 8.1
2014-Sep-10 05:31N 34°16' E 134°59'8 8.6
2014-Sep-10 04:33N 34°08' E 135°01'  
Track history (hours):
 
Tides and Currents Weather Stations Pressure Air Temp Water Temp Dewpoint Dewpoint Depression Visibility Wind Speed Wind Dir Waves Ship Positions

Yahata Maru

Last reported at 2014-Sep-19 22:26 UTC. Time now 2014-Sep-20 10:00 UTC.
Position N 34°35' E 134°50'.

Length 149 m; draft 4.7 m.

Type: Other ship. MMSI: 431400594.

Date/timePositionNaut miles runAvg speedWind from/ knotsBaromVisibWave heightAir tempDewpointWater temp
2014-Sep-19 22:26N 34°35' E 134°50'910.4
2014-Sep-19 21:33N 34°37' E 135°01'9 9.3
2014-Sep-19 20:33N 34°36' E 135°12'9 9.1
2014-Sep-19 19:34N 34°42' E 135°21'1 1.2
2014-Sep-19 18:29N 34°43' E 135°21'0 0.0
2014-Sep-19 17:23N 34°43' E 135°21'0 0.0
2014-Sep-19 16:29N 34°43' E 135°21'0 0.0
2014-Sep-19 15:29N 34°43' E 135°21'0 0.0
2014-Sep-19 14:29N 34°43' E 135°21'0 0.0
2014-Sep-19 13:29N 34°43' E 135°21'0 0.0
2014-Sep-19 12:23N 34°43' E 135°21'0 0.0
2014-Sep-19 11:29N 34°43' E 135°21'0 0.0
2014-Sep-19 10:11N 34°43' E 135°21'0 0.0
2014-Sep-19 09:29N 34°43' E 135°21'0 0.0
2014-Sep-19 08:29N 34°43' E 135°21'0 0.3
2014-Sep-19 07:32N 34°43' E 135°21'7 6.8
2014-Sep-19 06:33N 34°36' E 135°21'2 0.4
2014-Sep-19 00:33N 34°36' E 135°24'6 5.1
2014-Sep-18 23:28N 34°34' E 135°18'0 0.0
2014-Sep-18 22:28N 34°34' E 135°18'0 0.0
2014-Sep-18 21:16N 34°34' E 135°18'0 0.0
2014-Sep-18 20:22N 34°34' E 135°18'0 0.0
2014-Sep-18 19:28N 34°34' E 135°18'0 0.0
2014-Sep-18 18:28N 34°34' E 135°18'0 0.1
2014-Sep-18 17:28N 34°34' E 135°18'4 4.7
2014-Sep-18 16:33N 34°31' E 135°14'9 9.0
2014-Sep-18 15:33N 34°24' E 135°07'12 7.8
2014-Sep-18 14:03N 34°15' E 134°59'4 8.5
2014-Sep-18 13:33N 34°10' E 134°60'232 5.5
2014-Sep-16 19:29N 35°04' E 139°34'910.0
2014-Sep-16 18:33N 35°09' E 139°43'9 9.1
2014-Sep-16 17:33N 35°18' E 139°44'10 9.6
2014-Sep-16 16:33N 35°28' E 139°43'0 0.4
2014-Sep-16 15:31N 35°28' E 139°43'0 0.0
2014-Sep-16 14:31N 35°28' E 139°43'2 2.2
2014-Sep-16 13:34N 35°27' E 139°45'7 7.3
2014-Sep-16 12:33N 35°30' E 139°52'8 8.2
2014-Sep-16 11:32N 35°34' E 140°02'4 4.1
2014-Sep-16 10:30N 35°33' E 140°07'0 0.0
2014-Sep-16 09:33N 35°33' E 140°07'0 0.0
2014-Sep-16 08:33N 35°33' E 140°07'0 0.0
2014-Sep-16 07:33N 35°33' E 140°07'0 0.0
2014-Sep-16 06:33N 35°33' E 140°07'0 0.0
2014-Sep-16 05:30N 35°33' E 140°07'0 0.0
2014-Sep-16 04:27N 35°33' E 140°07'0 0.0
2014-Sep-16 03:30N 35°33' E 140°07'0 0.0
2014-Sep-16 02:30N 35°33' E 140°07'0 0.0
2014-Sep-16 01:33N 35°33' E 140°07'0 0.0
2014-Sep-16 00:33N 35°33' E 140°07'0 0.0
2014-Sep-15 23:30N 35°33' E 140°07'0 0.0
2014-Sep-15 22:33N 35°33' E 140°07'0 0.0
2014-Sep-15 21:21N 35°33' E 140°07'0 0.0
2014-Sep-15 20:33N 35°33' E 140°07'0 0.0
2014-Sep-15 19:33N 35°33' E 140°07'0 0.0
2014-Sep-15 18:33N 35°33' E 140°07'0 0.0
2014-Sep-15 17:30N 35°33' E 140°07'0 0.0
2014-Sep-15 16:30N 35°33' E 140°07'0 0.0
2014-Sep-15 15:33N 35°33' E 140°07'0 0.0
2014-Sep-15 14:33N 35°33' E 140°07'4 4.5
2014-Sep-15 13:33N 35°33' E 140°01'10 9.5
2014-Sep-15 12:33N 35°28' E 139°51'10 9.6
2014-Sep-15 11:33N 35°20' E 139°45'9 9.0
2014-Sep-15 10:33N 35°12' E 139°47'  
2014-Sep-11 00:33N 34°35' E 134°54'1110.9
2014-Sep-10 23:33N 34°36' E 135°07'10 9.7
2014-Sep-10 22:33N 34°39' E 135°18'5 4.9
2014-Sep-10 21:33N 34°43' E 135°21'0 0.0
2014-Sep-10 20:31N 34°43' E 135°21'0 0.0
2014-Sep-10 14:13N 34°43' E 135°21'0 0.0
2014-Sep-10 13:33N 34°43' E 135°21'5 5.1
2014-Sep-10 12:33N 34°38' E 135°20'5 3.8
2014-Sep-10 11:12N 34°35' E 135°26'0 0.0
2014-Sep-10 10:30N 34°35' E 135°26'0 0.0
2014-Sep-10 09:30N 34°35' E 135°26'3 3.3
2014-Sep-10 08:33N 34°36' E 135°22'1010.1
2014-Sep-10 07:33N 34°29' E 135°13'9 8.7
2014-Sep-10 06:32N 34°23' E 135°05'8 8.1
2014-Sep-10 05:31N 34°16' E 134°59'8 8.6
2014-Sep-10 04:33N 34°08' E 135°01'  

Dump ship's entire track history